• Join FlightAware (Why Join?)
  • Login
  • US Flag 
09:01AM EST


 

Airport Tracker/Info


-or-


 

Live Flight TrackerFlight Track Log ✈ UPS1121 ✈ 09-Aug-2013 ✈ KBDL - KSDF

Flight Track Log - Related Links

Times and Time Zones

All times are in EDT time to prevent confusion due to time zone crossing. See the UPS1121 flight status page for this flight to view local times or setup timezone preferences in your user account.

Time Position Orientation Groundspeed Altitude Reporting Facility
EDT Latitude Longitude Course Direction KTS MPH feet Rate Location/Type
11:12PM 41.9311 -72.7025 291° West 156 180 1,000  Level Boston Center
11:14PM 41.9558 -72.7892 291° West 167 192 3,900 1,920 Climbing Boston Center
11:15PM 42.0247 -72.8203 341° North 179 206 6,100 2,700 Climbing Boston Center
11:16PM 42.0869 -72.8822 324° Northwest 240 276 9,400 1,920 Climbing Boston Center
11:21PM 42.1730 -73.6300 324° Northwest 404 465 19,000 1,680 Climbing FlightAware
11:22PM 42.1680 -73.7210 266° West 407 468 20,100 900 Climbing FlightAware
11:23PM 42.1630 -73.8110 266° West 407 468 20,200 60 Climbing FlightAware
11:23PM 42.1580 -73.8880 265° West 407 468 20,200  Level FlightAware
11:24PM 42.1520 -73.9660 264° West 407 468 20,200  Level FlightAware
11:25PM 42.1470 -74.0430 265° West 407 468 20,200 2,580 Level FlightAware
11:25PM 42.1410 -74.1780 267° West 24,500 3,900 Climbing FlightAware
11:26PM 42.1340 -74.2810 265° West 418 481 24,900 1,200 Climbing FlightAware
11:26PM 42.1295 -74.3610 266° West 424 488 25,800 1,500 Climbing FlightAware ADS-B
11:27PM 42.1236 -74.4513 265° West 427 491 26,400 960 Climbing FlightAware ADS-B
11:27PM 42.1181 -74.5353 265° West 430 495 26,900 960 Climbing FlightAware ADS-B
11:28PM 42.1108 -74.6466 265° West 432 497 27,600 900 Climbing FlightAware ADS-B
11:28PM 42.1052 -74.7291 265° West 431 496 28,000 900 Climbing FlightAware ADS-B
11:29PM 42.1000 -74.8160 265° West 427 491 28,600 1,200 Climbing FlightAware
11:29PM 42.0976 -74.8442 263° West 428 493 28,900 300 Climbing FlightAware ADS-B
11:30PM 42.0870 -75.0030 265° West 427 491 29,000 60 Climbing FlightAware
11:31PM 42.0813 -75.0785 264° West 430 495 29,000  Level FlightAware ADS-B
11:31PM 42.0739 -75.1831 265° West 427 491 29,000  Level FlightAware ADS-B
11:32PM 42.0660 -75.2840 264° West 425 489 29,000  Level FlightAware
11:32PM 42.0574 -75.3260 255° West 427 491 29,000  Level FlightAware ADS-B
11:33PM 42.0090 -75.4520 243° Southwest 429 494 29,000  Level FlightAware
11:34PM 41.9790 -75.5230 240° Southwest 429 494 29,000  Level FlightAware
11:34PM 41.9390 -75.6170 240° Southwest 429 494 29,000 180 Level FlightAware
11:35PM 41.9040 -75.7010 241° Southwest 392 451 29,300 540 Climbing FlightAware
11:35PM 41.8710 -75.7800 241° Southwest 425 489 29,700 600 Climbing FlightAware
11:36PM 41.8370 -75.8610 241° Southwest 430 495 30,000 300 Climbing FlightAware
11:36PM 41.8163 -75.9109 241° Southwest 434 499 30,000  Level FlightAware ADS-B
11:37PM 41.7868 -75.9830 241° Southwest 436 502 30,000  Level FlightAware ADS-B
11:37PM 41.7835 -75.9923 245° Southwest 436 502 30,000  Level FlightAware ADS-B
11:37PM 41.7696 -76.0407 249° West 435 501 30,000  Level FlightAware ADS-B
11:37PM 41.7632 -76.0719 255° West 435 501 30,000  Level FlightAware ADS-B
11:38PM 41.7587 -76.1048 260° West 436 502 30,000  Level FlightAware ADS-B
11:38PM 41.7566 -76.1306 264° West 435 501 30,000  Level FlightAware ADS-B
11:38PM 41.7528 -76.2111 266° West 438 504 30,000  Level FlightAware ADS-B
11:39PM 41.7491 -76.2922 267° West 431 496 30,000  Level FlightAware ADS-B
11:39PM 41.7455 -76.3728 267° West 427 491 30,000  Level FlightAware ADS-B
11:40PM 41.7415 -76.4615 267° West 428 493 30,000  Level FlightAware ADS-B
11:40PM 41.7376 -76.5449 266° West 431 496 30,000  Level FlightAware ADS-B
11:41PM 41.7338 -76.6272 266° West 433 498 30,000  Level FlightAware ADS-B
11:41PM 41.7300 -76.7091 266° West 434 499 30,000  Level FlightAware ADS-B
11:42PM 41.7261 -76.7938 266° West 434 499 30,000  Level FlightAware ADS-B
11:43PM 41.7220 -76.8850 267° West 433 498 30,000  Level FlightAware
11:43PM 41.7170 -76.9810 266° West 433 498 30,000  Level FlightAware
11:44PM 41.7120 -77.0890 266° West 433 498 30,000  Level FlightAware
11:44PM 41.7080 -77.1700 266° West 433 498 30,000  Level FlightAware
11:45PM 41.7040 -77.2630 267° West 433 498 30,000  Level FlightAware
11:46PM 41.7000 -77.3550 267° West 433 498 30,000  Level FlightAware
11:46PM 41.6880 -77.4480 260° West 432 497 30,000  Level FlightAware
11:47PM 41.6650 -77.5360 251° West 433 498 30,000  Level FlightAware
11:47PM 41.6380 -77.6330 250° West 432 497 30,000  Level FlightAware
11:48PM 41.6120 -77.7260 250° West 433 498 30,000  Level FlightAware
11:48PM 41.5940 -77.7930 250° West 434 499 30,000  Level FlightAware
11:49PM 41.5640 -77.8940 248° West 434 499 30,000  Level FlightAware
11:50PM 41.5340 -77.9860 246° West 435 501 30,000  Level FlightAware
11:50PM 41.5090 -78.0590 245° Southwest 435 501 30,000  Level FlightAware
11:51PM 41.4810 -78.1430 246° West 436 502 30,000  Level FlightAware
11:51PM 41.4470 -78.2450 246° West 438 504 30,000  Level FlightAware
11:52PM 41.4220 -78.3190 246° West 439 505 30,000  Level FlightAware
11:53PM 41.3890 -78.4180 246° West 438 504 30,000  Level FlightAware
11:53PM 41.3600 -78.5030 246° West 436 502 30,000  Level FlightAware
11:54PM 41.3350 -78.5780 246° West 435 501 30,000  Level FlightAware
11:54PM 41.3060 -78.6630 246° West 436 502 30,000  Level FlightAware
11:55PM 41.2730 -78.7580 245° Southwest 434 499 30,000  Level FlightAware
11:56PM 41.2280 -78.8340 232° Southwest 438 504 30,000  Level FlightAware
11:56PM 41.1900 -78.8660 212° Southwest 448 516 30,000  Level FlightAware
11:57PM 41.1170 -78.8960 197° South 461 531 30,000  Level FlightAware
11:57PM 41.0470 -78.9180 193° South 463 533 30,000  Level FlightAware
11:58PM 40.9690 -78.9450 195° South 465 535 30,000  Level FlightAware
11:58PM 40.9100 -78.9660 195° South 465 535 30,000  Level FlightAware
11:59PM 40.8260 -78.9960 195° South 466 536 30,000  Level FlightAware
11:59PM 40.7630 -79.0260 200° South 454 522 30,000  Level FlightAware
12:00AM 40.7300 -79.0580 216° Southwest 445 512 30,000  Level FlightAware
12:00AM 40.6930 -79.1250 234° Southwest 435 501 30,000  Level FlightAware
12:01AM 40.6580 -79.2500 250° West 434 499 30,000  Level FlightAware
12:02AM 40.6360 -79.3310 250° West 434 499 30,000  Level FlightAware
12:02AM 40.6100 -79.4250 250° West 434 499 30,000  Level FlightAware
12:03AM 40.5850 -79.5160 250° West 434 499 30,000  Level FlightAware
12:03AM 40.5620 -79.6030 251° West 434 499 30,000  Level FlightAware
12:04AM 40.5400 -79.6830 250° West 435 501 30,000  Level FlightAware
12:04AM 40.5160 -79.7670 249° West 436 502 30,000  Level FlightAware
12:05AM 40.4910 -79.8570 250° West 437 503 30,000  Level FlightAware
12:06AM 40.4680 -79.9420 250° West 438 504 30,000  Level FlightAware
12:06AM 40.4410 -80.0350 249° West 439 505 30,000  Level FlightAware
12:07AM 40.4170 -80.1220 250° West 440 506 30,000  Level FlightAware
12:07AM 40.3910 -80.2150 250° West 439 505 30,000  Level FlightAware
12:08AM 40.3710 -80.2870 250° West 439 505 30,000  Level FlightAware
12:09AM 40.3420 -80.3860 249° West 438 504 30,000  Level FlightAware
12:09AM 40.3180 -80.4730 250° West 438 504 30,000  Level FlightAware
12:10AM 40.2930 -80.5600 249° West 437 503 30,000  Level FlightAware
12:10AM 40.2680 -80.6460 249° West 437 503 30,000  Level FlightAware
12:11AM 40.2430 -80.7330 249° West 437 503 30,000  Level FlightAware
12:12AM 40.2110 -80.8430 249° West 438 504 30,000  Level FlightAware
12:12AM 40.1860 -80.9280 249° West 438 504 30,000  Level FlightAware
12:13AM 40.1640 -81.0050 250° West 438 504 30,000  Level FlightAware
12:13AM 40.1370 -81.0990 249° West 439 505 30,000  Level FlightAware
12:14AM 40.1110 -81.1900 250° West 440 506 30,000  Level FlightAware
12:15AM 40.0870 -81.2700 249° West 440 506 30,000  Level FlightAware
12:15AM 40.0610 -81.3610 250° West 438 504 30,000  Level FlightAware
12:16AM 40.0350 -81.4500 249° West 438 504 30,000  Level FlightAware
12:16AM 40.0100 -81.5380 250° West 439 505 30,000  Level FlightAware
12:17AM 39.9860 -81.6180 249° West 439 505 30,000  Level FlightAware
12:17AM 39.9600 -81.7060 249° West 438 504 30,000  Level FlightAware
12:18AM 39.9340 -81.7950 249° West 437 503 30,000  Level FlightAware
12:19AM 39.9090 -81.8770 248° West 435 501 30,000  Level FlightAware
12:19AM 39.8830 -81.9650 249° West 436 502 30,000  Level FlightAware
12:20AM 39.8570 -82.0520 249° West 435 501 30,000  Level FlightAware
12:20AM 39.8320 -82.1380 249° West 436 502 30,000  Level FlightAware
12:21AM 39.8080 -82.2160 248° West 436 502 30,000  Level FlightAware
12:22AM 39.7800 -82.3070 248° West 436 502 30,000  Level FlightAware
12:22AM 39.7530 -82.3960 248° West 436 502 30,000  Level FlightAware
12:23AM 39.7260 -82.4840 248° West 437 503 30,000  Level FlightAware
12:23AM 39.7020 -82.5620 248° West 438 504 30,000  Level FlightAware
12:24AM 39.6760 -82.6460 248° West 438 504 30,000  Level FlightAware
12:24AM 39.6480 -82.7360 248° West 438 504 30,000  Level FlightAware
12:25AM 39.6200 -82.8270 248° West 438 504 30,000  Level FlightAware
12:26AM 39.5950 -82.9060 248° West 438 504 30,000  Level FlightAware
12:26AM 39.5720 -82.9820 249° West 439 505 30,000  Level FlightAware
12:27AM 39.5410 -83.0820 248° West 438 504 30,000  Level FlightAware
12:27AM 39.5150 -83.1630 247° West 438 504 30,000  Level FlightAware
12:28AM 39.4900 -83.2430 248° West 438 504 30,000  Level FlightAware
12:29AM 39.4610 -83.3360 248° West 439 505 30,000  Level FlightAware
12:29AM 39.4360 -83.4160 248° West 440 506 30,000  Level FlightAware
12:30AM 39.4060 -83.5100 248° West 440 506 30,000  Level FlightAware
12:30AM 39.3740 -83.5950 244° Southwest 440 506 30,000  Level FlightAware
12:31AM 39.3450 -83.6650 242° Southwest 439 505 30,000  Level FlightAware
12:31AM 39.3090 -83.7470 240° Southwest 438 504 30,000  Level FlightAware
12:32AM 39.2720 -83.8290 240° Southwest 438 504 30,000  Level FlightAware
12:33AM 39.2370 -83.9080 240° Southwest 438 504 30,000  Level FlightAware
12:33AM 39.2030 -83.9830 240° Southwest 439 505 30,000  Level FlightAware
12:34AM 39.1670 -84.0640 240° Southwest 440 506 30,000  Level FlightAware
12:34AM 39.1310 -84.1430 240° Southwest 441 507 30,000 -540 Level FlightAware
12:35AM 39.0940 -84.2250 240° Southwest 443 510 29,400 -1,680 Descending FlightAware
12:35AM 39.0620 -84.2970 240° Southwest 436 502 28,100 -2,820 Descending FlightAware
12:36AM 39.0170 -84.3970 240° Southwest 429 494 25,900 -2,880 Descending FlightAware
12:37AM 38.9830 -84.4710 239° Southwest 421 484 24,400 -2,700 Descending FlightAware
12:37AM 38.9520 -84.5390 240° Southwest 417 480 22,900 -2,760 Descending FlightAware
12:38AM 38.9140 -84.6240 240° Southwest 408 470 21,100 -2,760 Descending FlightAware
12:39AM 38.8820 -84.6930 239° Southwest 400 460 19,600 -2,400 Descending FlightAware
12:39AM 38.8560 -84.7510 240° Southwest 396 456 18,300 -2,700 Descending FlightAware
12:40AM 38.8130 -84.8450 240° Southwest 391 450 16,100 -2,940 Descending FlightAware
12:40AM 38.7790 -84.9170 239° Southwest 385 443 14,600 -2,280 Descending FlightAware
12:41AM 38.7380 -84.9730 227° Southwest 374 430 13,500 -1,560 Descending FlightAware
12:42AM 38.6860 -85.0230 217° Southwest 366 421 12,800 -1,080 Descending FlightAware
12:42AM 38.6430 -85.0640 217° Southwest 362 417 12,300 -720 Descending FlightAware
12:43AM 38.5920 -85.1140 217° Southwest 355 409 12,000 -420 Descending FlightAware
12:43AM 38.5460 -85.1570 216° Southwest 347 399 11,800 -1,260 Descending FlightAware
12:44AM 38.5020 -85.1990 217° Southwest 340 391 10,600 -1,680 Descending FlightAware
12:45AM 38.4590 -85.2410 217° Southwest 318 366 9,900 -780 Descending FlightAware
12:45AM 38.4360 -85.2630 217° Southwest 296 341 9,900  Level FlightAware
12:45AM 38.4190 -85.2790 216° Southwest 282 325 9,900 -600 Level FlightAware
12:46AM 38.3900 -85.3060 216° Southwest 266 306 9,500 -1,200 Descending FlightAware
12:46AM 38.3760 -85.3180 214° Southwest 268 308 9,100 -1,440 Descending FlightAware
12:46AM 38.3560 -85.3370 217° Southwest 269 310 8,600 -1,440 Descending FlightAware
12:46AM 38.3390 -85.3540 218° Southwest 267 307 8,200 -1,380 Descending FlightAware
12:47AM 38.3200 -85.3710 215° Southwest 264 304 7,800 -1,200 Descending FlightAware
12:47AM 38.3080 -85.3780 205° Southwest 265 305 7,600 -1,200 Descending FlightAware
12:47AM 38.2930 -85.3840 197° South 265 305 7,300 -1,200 Descending FlightAware
12:48AM 38.2670 -85.3940 197° South 264 304 6,900 -600 Descending FlightAware
12:48AM 38.2450 -85.4000 192° South 266 306 6,900  Level FlightAware
12:48AM 38.2190 -85.4030 185° South 268 308 6,900  Level FlightAware
12:49AM 38.1950 -85.4060 186° South 269 310 6,900  Level FlightAware
12:49AM 38.1620 -85.4100 185° South 272 313 6,900  Level FlightAware
12:49AM 38.1380 -85.4130 186° South 269 310 6,900  Level FlightAware
12:50AM 38.1140 -85.4160 186° South 257 296 6,900  Level FlightAware
12:50AM 38.0900 -85.4180 184° South 237 273 6,900 -360 Level FlightAware
12:50AM 38.0760 -85.4220 193° South 224 258 6,700 -900 Descending FlightAware
12:50AM 38.0720 -85.4240 201° Southwest 221 254 6,600 -1,200 Descending FlightAware
12:50AM 38.0650 -85.4310 218° Southwest 213 245 6,400 -1,200 Descending FlightAware
12:51AM 38.0610 -85.4390 238° Southwest 212 244 6,300 -1,200 Descending FlightAware
12:51AM 38.0580 -85.4500 251° West 213 245 6,100 -1,200 Descending FlightAware
12:51AM 38.0540 -85.4630 249° West 213 245 5,800 -1,500 Descending FlightAware
12:51AM 38.0440 -85.4980 250° West 215 247 5,100 -1,200 Descending FlightAware
12:52AM 38.0380 -85.5180 249° West 216 249 4,900 -300 Descending FlightAware
12:52AM 38.0250 -85.5480 241° Southwest 216 249 4,900  Level FlightAware
12:52AM 38.0150 -85.5530 202° Southwest 214 246 4,900  Level FlightAware
12:52AM 38.0120 -85.5540 195° South 216 249 4,900 -600 Level FlightAware
12:53AM 37.9860 -85.5490 171° South 220 253 4,600 -960 Descending FlightAware
12:53AM 37.9680 -85.5440 168° South 222 255 4,200 -1,200 Descending FlightAware
12:53AM 37.9510 -85.5410 172° South 222 255 3,900 -540 Descending FlightAware
12:54AM 37.9310 -85.5370 171° South 223 257 3,900  Level FlightAware
12:54AM 37.9100 -85.5330 171° South 203 234 3,900  Level FlightAware
12:54AM 37.8890 -85.5290 171° South 186 214 3,900  Level FlightAware
12:55AM 37.8740 -85.5260 171° South 179 206 3,900 -300 Level FlightAware
12:55AM 37.8570 -85.5230 172° South 172 198 3,700 -900 Descending FlightAware
12:55AM 37.8450 -85.5210 173° South 173 199 3,400 -1,200 Descending FlightAware
12:56AM 37.8320 -85.5300 209° Southwest 173 199 3,000 -1,020 Descending FlightAware
12:56AM 37.8290 -85.5390 247° West 177 204 2,900 -240 Descending FlightAware
12:56AM 37.8260 -85.5600 260° West 180 207 2,900  Level FlightAware
12:57AM 37.8320 -85.5790 292° West 178 205 2,900  Level FlightAware
12:57AM 37.8460 -85.5940 320° Northwest 182 209 2,900  Level FlightAware
12:57AM 37.8530 -85.6010 322° Northwest 182 209 2,900  Level FlightAware
12:57AM 37.8680 -85.6170 320° Northwest 184 212 2,900  Level FlightAware
12:58AM 37.8730 -85.6210 328° Northwest 184 212 2,900  Level FlightAware
12:58AM 37.8830 -85.6260 338° Northwest 184 212 2,900  Level FlightAware
12:58AM 37.9030 -85.6360 338° Northwest 185 213 2,900  Level FlightAware
12:59AM 37.9200 -85.6420 344° North 185 213 2,900  Level FlightAware
12:59AM 37.9360 -85.6460 349° North 182 209 2,900  Level FlightAware
12:59AM 37.9520 -85.6520 344° North 183 211 2,900  Level FlightAware
12:59AM 37.9600 -85.6540 349° North 184 212 2,900  Level FlightAware
01:00AM 37.9820 -85.6610 346° North 182 209 2,900  Level FlightAware
01:00AM 37.9970 -85.6660 345° North 181 208 2,900  Level FlightAware
01:00AM 38.0110 -85.6710 344° North 180 207 2,900  Level FlightAware
01:01AM 38.0270 -85.6770 344° North 180 207 2,900 -180 Level FlightAware
01:01AM 38.0430 -85.6820 346° North 181 208 2,800 -600 Descending FlightAware
01:01AM 38.0590 -85.6880 344° North 182 209 2,500 -960 Descending FlightAware
01:02AM 38.0740 -85.6930 345° North 174 200 2,200 -960 Descending FlightAware
01:02AM 38.0930 -85.6990 346° North 155 178 1,800 -840 Descending FlightAware
01:02AM 38.1050 -85.7030 345° North 139 160 1,600 -780 Descending FlightAware
01:03AM 38.1180 -85.7080 343° North 139 160 1,300 -720 Descending FlightAware
01:03AM 38.1260 -85.7100 349° North 138 159 1,200 -660 Descending FlightAware
01:03AM 38.1420 -85.7160 344° North 139 160 900 -840 Descending FlightAware
01:04AM 38.1550 -85.7200 346° North 137 158 600 -780 Descending FlightAware
01:04AM 38.1660 -85.7240 344° North 135 155 400 -720 Descending FlightAware